• Join FlightAware (Why Join?)
  • Login
  • US Flag 
10:27PM EDT


 

Airport Tracker/Info


-or-


 

Live Flight TrackerFlight Track Log ✈ FLG3757 ✈ 08-Oct-2013 ✈ KBGM - KDTW

Flight Track Log - Related Links

Times and Time Zones

All times are in EDT time to prevent confusion due to time zone crossing. See the FLG3757 flight status page for this flight to view local times or setup timezone preferences in your user account.

Time Position Orientation Groundspeed Altitude Reporting Facility
EDT Latitude Longitude Course Direction KTS MPH feet Rate Location/Type
06:15AM 42.2256 -76.0228 280° West 156 180 4,000  Level Cleveland Center
06:16AM 42.2333 -76.0836 280° West 165 190 5,100 2,100 Climbing New York Center
06:17AM 42.2564 -76.1725 289° West 209 241 7,800 2,880 Climbing New York Center
06:18AM 42.2817 -76.2586 292° West 239 275 10,900 2,280 Climbing New York Center
06:19AM 42.3158 -76.3736 292° West 263 303 12,400 1,500 Climbing New York Center
06:20AM 42.3461 -76.4800 291° West 291 335 13,900 1,380 Climbing New York Center
06:22AM 42.4147 -76.7264 291° West 326 375 17,000 1,320 Climbing Cleveland Center
06:23AM 42.4464 -76.8442 290° West 331 381 18,300 1,200 Climbing Cleveland Center
06:24AM 42.4861 -76.9853 291° West 334 384 19,500 1,140 Climbing Cleveland Center
06:25AM 42.5197 -77.1086 290° West 346 398 20,700 1,080 Climbing Cleveland Center
06:26AM 42.5522 -77.2294 290° West 344 396 21,700 840 Climbing Cleveland Center
06:27AM 42.5867 -77.3539 291° West 352 405 22,500 720 Climbing Cleveland Center
06:28AM 42.6161 -77.4633 290° West 353 406 23,200 780 Climbing Cleveland Center
06:29AM 42.6567 -77.6139 290° West 355 409 24,200 780 Climbing Cleveland Center
06:30AM 42.6908 -77.7431 290° West 359 413 24,900 600 Climbing Cleveland Center
06:31AM 42.7278 -77.8789 290° West 372 428 25,500 540 Climbing Cleveland Center
06:32AM 42.7600 -78.0089 289° West 368 423 26,000 240 Climbing Cleveland Center
06:33AM 42.7597 -78.1508 270° West 379 436 26,000  Level Cleveland Center
06:34AM 42.7592 -78.2983 270° West 391 450 26,000  Level Cleveland Center
06:35AM 42.7567 -78.4497 269° West 400 460 26,000  Level Cleveland Center
06:36AM 42.7553 -78.6022 269° West 405 466 26,000  Level Cleveland Center
06:37AM 42.7531 -78.7553 269° West 405 466 26,000  Level Cleveland Center
06:38AM 42.7503 -78.9086 269° West 408 470 26,000  Level Cleveland Center
06:39AM 42.7486 -79.0628 269° West 409 471 26,000  Level Cleveland Center
06:40AM 42.7464 -79.2181 269° West 410 472 26,000  Level Cleveland Center
06:41AM 42.7425 -79.3742 268° West 414 476 26,000  Level Cleveland Center
06:42AM 42.7392 -79.5594 269° West 411 473 26,000  Level Cleveland Center
06:43AM 42.7353 -79.7156 268° West 413 475 26,000  Level Cleveland Center
06:44AM 42.7319 -79.8714 268° West 414 476 26,000  Level Cleveland Center
06:45AM 42.7256 -80.0325 267° West 412 474 26,000  Level Cleveland Center
06:47AM 42.7222 -80.1875 268° West 405 466 26,000  Level Cleveland Center
06:48AM 42.7192 -80.3389 268° West 398 458 26,000  Level Cleveland Center
06:49AM 42.7142 -80.4889 267° West 394 453 26,000  Level Cleveland Center
06:50AM 42.7100 -80.6383 268° West 393 452 26,000 -480 Level Cleveland Center
06:51AM 42.7061 -80.7958 268° West 411 473 25,100 -1,020 Descending Cleveland Center
06:52AM 42.6983 -80.9481 266° West 404 465 24,000 -540 Descending Cleveland Center
06:53AM 42.6806 -81.0997 261° West 404 465 24,000 -240 Level Cleveland Center
06:54AM 42.6633 -81.2489 261° West 398 458 23,600 -840 Descending Cleveland Center
06:55AM 42.6464 -81.3864 261° West 372 428 22,300 -1,320 Descending Cleveland Center
06:56AM 42.6303 -81.5269 261° West 373 429 20,900 -1,380 Descending Cleveland Center
06:57AM 42.6100 -81.6906 260° West 374 430 19,500 -1,200 Descending Cleveland Center
06:58AM 42.5956 -81.8214 262° West 369 425 18,500 -1,080 Descending Cleveland Center
06:59AM 42.5783 -81.9550 260° West 362 417 17,400 -1,320 Descending Cleveland Center
07:00AM 42.5625 -82.0861 261° West 356 410 15,900 -1,500 Descending Cleveland Center
07:00AM 42.5517 -82.1842 262° West 352 405 14,900 -1,380 Descending Cleveland Center
07:01AM 42.5461 -82.2164 257° West 352 405 14,500 -1,560 Descending Cleveland Center
07:02AM 42.5297 -82.3542 261° West 341 392 12,900 -1,500 Descending Cleveland Center
07:02AM 42.5303 -82.3422 86° East 345 397 13,000 -900 Climbing Cleveland Center
07:03AM 42.5147 -82.4767 261° West 336 387 12,000 -1,020 Descending Cleveland Center
07:03AM 42.5147 -82.4678 90° East 340 391 12,000  Level Cleveland Center
07:04AM 42.4900 -82.5900 255° West 341 392 12,000 -780 Level Cleveland Center
07:05AM 42.4531 -82.7006 246° West 307 353 10,600 -1,680 Descending Cleveland Center
07:05AM 42.4436 -82.7194 236° Southwest 324 373 10,300 -1,680 Descending Cleveland Center
07:06AM 42.4183 -82.8006 247° West 277 319 8,900 -1,680 Descending Cleveland Center
07:06AM 42.4153 -82.8125 251° West 284 327 8,600 -1,620 Descending Cleveland Center
07:07AM 42.4172 -82.9050 272° West 249 287 7,100 -1,500 Descending Cleveland Center
07:07AM 42.4158 -82.9086 242° Southwest 260 299 7,100 -900 Level Cleveland Center
07:08AM 42.4083 -82.9944 263° West 265 305 6,300 -900 Descending Cleveland Center
07:08AM 42.4067 -83.0036 256° West 256 295 6,200 -300 Descending Cleveland Center
07:09AM 42.3972 -83.0861 261° West 230 265 6,000 -240 Descending Cleveland Center
07:09AM 42.3958 -83.0958 259° West 252 290 6,000 -1,320 Level Cleveland Center
07:10AM 42.3797 -83.1769 255° West 235 270 4,400 -1,020 Descending Cleveland Center
07:11AM 42.3494 -83.2372 236° Southwest 203 234 4,000 -900 Descending Cleveland Center
07:12AM 42.3014 -83.2733 209° Southwest 187 215 2,800 -1,200 Descending Cleveland Center
07:12AM 42.3039 -83.2697 47° Northeast 190 219 2,800 -1,140 Level Cleveland Center
07:13AM 42.2636 -83.3019 211° Southwest 132 152 1,700 -1,200 Descending Cleveland Center
07:13AM 42.2589 -83.3036 195° South 163 188 1,600 -660 Descending Cleveland Center
07:14AM 42.2281 -83.3278 210° Southwest 125 144 1,000 -720 Descending Cleveland Center
07:14AM 42.2272 -83.3269 143° Southeast 143 165 900 -240 Descending Cleveland Center
07:15AM 42.1958 -83.3494 208° Southwest 140 161 800 -120 Descending Cleveland Center
07:17AM 42.2000 -83.3500 236° Southwest  Level FlightAware Approximate
07:24AM 42.2124 -83.3534 236° Southwest  Level Estimated